Time;durP1;ratioP1;P1;durP2;ratioP2;P2;SDS_P1;SDS_P2;PMS_P1;PMS_P2;Temp;Humidity;BMP_temperature;BMP_pressure;BME280_temperature;BME280_humidity;BME280_pressure;Samples;Min_cycle;Max_cycle;Signal;HPM_P1;HPM_P2
2021/06/22 00:00:26;;;;;;;28.80;12.03;;;;;;;20.77;62.70;98278.98;125545;1095;102937;-76
2021/06/22 00:03:14;;;;;;;28.70;12.53;;;;;;;20.71;63.16;98277.03;125667;1096;102939;-76
2021/06/22 00:05:45;;;;;;;33.60;14.00;;;;;;;20.68;63.12;98280.13;125618;1095;102911;-76
2021/06/22 00:08:13;;;;;;;28.37;11.70;;;;;;;20.66;63.52;98274.94;125607;1096;102935;-76
2021/06/22 00:11:01;;;;;;;30.13;11.43;;;;;;;20.66;63.56;98279.48;125474;1095;102712;-75
2021/06/22 00:13:30;;;;;;;26.93;11.13;;;;;;;20.64;63.45;98281.55;125533;1095;102977;-76
2021/06/22 00:15:59;;;;;;;24.77;10.40;;;;;;;20.62;63.83;98281.76;125556;1095;102932;-76
2021/06/22 00:18:27;;;;;;;27.63;12.60;;;;;;;20.62;63.92;98283.61;125560;1095;102948;-76
2021/06/22 00:20:56;;;;;;;26.70;11.33;;;;;;;20.61;64.43;98277.39;125685;1096;102965;-74
2021/06/22 00:23:26;;;;;;;29.03;11.57;;;;;;;20.58;63.88;98279.66;125662;1094;103068;-75
2021/06/22 00:25:56;;;;;;;24.10;11.50;;;;;;;20.53;64.57;98285.63;125707;1097;103015;-76
2021/06/22 00:28:24;;;;;;;27.20;11.30;;;;;;;20.49;65.24;98285.20;125675;1096;103022;-76
2021/06/22 00:30:53;;;;;;;25.97;11.53;;;;;;;20.46;65.03;98287.44;125656;1096;102912;-75
2021/06/22 00:33:23;;;;;;;24.20;10.90;;;;;;;20.43;65.44;98287.82;125666;1097;102977;-76
2021/06/22 00:35:52;;;;;;;25.07;11.83;;;;;;;20.37;65.22;98290.30;125645;1097;103035;-76
2021/06/22 00:38:20;;;;;;;26.30;11.10;;;;;;;20.35;65.27;98295.05;125698;1095;103019;-77
2021/06/22 00:40:49;;;;;;;24.77;11.00;;;;;;;20.34;65.22;98281.73;125550;1096;103064;-76
2021/06/22 00:43:17;;;;;;;30.10;12.00;;;;;;;20.33;65.23;98282.76;125671;1095;103000;-77
2021/06/22 00:45:45;;;;;;;25.97;12.27;;;;;;;20.29;65.30;98276.92;125550;1096;102956;-76
2021/06/22 00:48:14;;;;;;;29.00;11.90;;;;;;;20.27;65.67;98281.68;125625;1095;102916;-77
2021/06/22 00:50:42;;;;;;;26.40;11.00;;;;;;;20.25;65.76;98272.94;125709;1096;102943;-76
2021/06/22 00:53:11;;;;;;;26.47;11.40;;;;;;;20.20;65.45;98278.08;125676;1097;103016;-77
2021/06/22 00:55:39;;;;;;;25.60;10.13;;;;;;;20.17;65.99;98271.22;125677;1096;103071;-77
2021/06/22 00:58:23;;;;;;;26.50;11.33;;;;;;;20.11;66.30;98266.58;125598;1095;103035;-77
2021/06/22 01:00:52;;;;;;;24.87;12.57;;;;;;;20.05;66.37;98264.65;125663;1096;102915;-74
2021/06/22 01:03:21;;;;;;;27.73;11.03;;;;;;;19.99;66.22;98273.52;125661;1096;102976;-75
2021/06/22 01:05:49;;;;;;;27.27;11.77;;;;;;;19.95;66.50;98274.92;125605;1096;102946;-76
2021/06/22 01:08:18;;;;;;;25.50;11.25;;;;;;;19.91;66.37;98269.91;125699;1096;102914;-75
2021/06/22 01:10:47;;;;;;;25.60;12.27;;;;;;;19.89;66.52;98265.73;125570;1096;103005;-76
2021/06/22 01:13:15;;;;;;;26.13;11.00;;;;;;;19.87;66.41;98262.36;125652;1096;103145;-75
2021/06/22 01:15:45;;;;;;;22.50;10.85;;;;;;;19.84;66.84;98271.66;125676;1096;103364;-75
2021/06/22 01:18:13;;;;;;;26.93;11.80;;;;;;;19.81;66.74;98266.64;125710;1096;103016;-75
2021/06/22 01:20:42;;;;;;;25.20;11.20;;;;;;;19.79;66.93;98268.69;125492;1096;103074;-75
2021/06/22 01:23:10;;;;;;;22.37;10.30;;;;;;;19.77;67.64;98270.75;125686;1097;103014;-76
2021/06/22 01:25:40;;;;;;;25.03;10.93;;;;;;;19.74;67.22;98263.88;125658;1096;103041;-75
2021/06/22 01:28:08;;;;;;;26.73;10.33;;;;;;;19.70;67.68;98267.98;125699;1096;102920;-75
2021/06/22 01:30:36;;;;;;;23.33;10.87;;;;;;;19.68;67.49;98277.30;125665;1096;103007;-75
2021/06/22 01:33:06;;;;;;;23.77;9.57;;;;;;;19.70;67.65;98272.56;125696;1097;103033;-76
2021/06/22 01:35:34;;;;;;;24.47;11.07;;;;;;;19.67;67.62;98270.23;125694;1096;103047;-75
2021/06/22 01:38:07;;;;;;;21.20;9.80;;;;;;;19.67;67.86;98262.14;125635;1097;103061;-75
2021/06/22 01:40:50;;;;;;;21.97;10.10;;;;;;;19.67;67.45;98260.27;125679;1097;103093;-76
2021/06/22 01:43:24;;;;;;;23.58;10.53;;;;;;;19.68;67.51;98259.24;125660;1095;103038;-75
2021/06/22 01:45:53;;;;;;;23.10;10.33;;;;;;;19.70;67.47;98264.47;125580;1096;103499;-76
2021/06/22 01:48:21;;;;;;;20.30;9.50;;;;;;;19.71;67.92;98271.53;125645;1097;103115;-76
2021/06/22 01:50:50;;;;;;;20.27;9.60;;;;;;;19.73;67.77;98270.30;125659;1097;102997;-76
2021/06/22 01:53:18;;;;;;;25.20;10.67;;;;;;;19.74;67.65;98268.45;125651;1097;103071;-76
2021/06/22 01:55:49;;;;;;;22.40;9.90;;;;;;;19.72;68.29;98267.81;125651;1095;103032;-76
2021/06/22 01:58:19;;;;;;;23.70;9.93;;;;;;;19.71;68.34;98261.56;125616;1095;103303;-76
2021/06/22 02:00:52;;;;;;;24.07;10.03;;;;;;;19.71;68.22;98256.17;125553;1094;103031;-78
2021/06/22 02:03:26;;;;;;;21.53;10.13;;;;;;;19.70;68.06;98262.59;125652;1095;102997;-76
2021/06/22 02:05:55;;;;;;;22.00;9.00;;;;;;;19.68;68.15;98263.82;125617;1094;102945;-75
2021/06/22 02:08:23;;;;;;;19.03;9.07;;;;;;;19.64;68.46;98256.10;125599;1096;102934;-78
2021/06/22 02:10:52;;;;;;;27.10;11.07;;;;;;;19.61;68.44;98261.02;125567;1095;102977;-76
2021/06/22 02:13:21;;;;;;;23.43;9.70;;;;;;;19.59;68.19;98260.38;125663;1096;102998;-76
2021/06/22 02:15:49;;;;;;;24.50;9.27;;;;;;;19.59;68.12;98261.23;125640;1096;103056;-79
2021/06/22 02:18:18;;;;;;;21.20;9.80;;;;;;;19.58;68.52;98253.31;125699;1095;103446;-77
2021/06/22 02:20:48;;;;;;;21.50;9.90;;;;;;;19.58;68.33;98253.31;125653;1097;102919;-76
2021/06/22 02:23:16;;;;;;;18.03;7.87;;;;;;;19.58;68.49;98258.70;125678;1095;102916;-75
2021/06/22 02:25:45;;;;;;;20.53;8.63;;;;;;;19.58;68.54;98256.00;125672;1096;103966;-74
2021/06/22 02:28:21;;;;;;;19.53;8.17;;;;;;;19.57;68.54;98252.48;125610;1095;103318;-74
2021/06/22 02:30:58;;;;;;;21.20;8.50;;;;;;;19.58;68.39;98253.31;125670;1097;102937;-74
2021/06/22 02:33:28;;;;;;;17.67;8.20;;;;;;;19.55;68.25;98254.54;125637;1095;102913;-74
2021/06/22 02:35:56;;;;;;;20.43;9.50;;;;;;;19.56;68.17;98261.61;125662;1096;102996;-73
2021/06/22 02:38:28;;;;;;;19.70;8.20;;;;;;;19.57;68.27;98257.03;125605;1095;103007;-76
2021/06/22 02:40:56;;;;;;;22.70;9.80;;;;;;;19.56;68.26;98256.21;125604;1095;103197;-74
2021/06/22 02:43:25;;;;;;;26.95;11.10;;;;;;;19.56;68.28;98258.09;125648;1094;102913;-77
2021/06/22 02:45:53;;;;;;;19.90;9.67;;;;;;;19.58;68.31;98261.40;125543;1095;103407;-76
2021/06/22 02:48:22;;;;;;;23.23;10.67;;;;;;;19.61;68.30;98258.33;126570;1095;102991;-74
2021/06/22 02:50:50;;;;;;;20.20;8.90;;;;;;;19.64;68.18;98257.95;125645;1096;104492;-75
2021/06/22 02:53:20;;;;;;;23.07;10.20;;;;;;;19.63;68.17;98261.67;125602;1097;103018;-74
2021/06/22 02:55:49;;;;;;;22.93;9.27;;;;;;;19.64;68.32;98257.95;125605;1095;103002;-74
2021/06/22 02:58:17;;;;;;;18.00;8.73;;;;;;;19.65;68.31;98265.02;125537;1095;103090;-74
2021/06/22 03:00:46;;;;;;;18.40;9.40;;;;;;;19.66;68.31;98271.27;125725;1095;103006;-75
2021/06/22 03:03:14;;;;;;;18.03;8.83;;;;;;;19.65;68.13;98270.41;126134;1095;103008;-76
2021/06/22 03:05:42;;;;;;;23.63;9.17;;;;;;;19.65;68.34;98283.91;125631;1096;103190;-75
2021/06/22 03:08:11;;;;;;;20.00;8.73;;;;;;;19.63;68.36;98280.55;125668;1096;103007;-73
2021/06/22 03:10:39;;;;;;;16.43;8.03;;;;;;;19.62;68.39;98273.48;125691;1095;103410;-73
2021/06/22 03:13:07;;;;;;;16.13;8.20;;;;;;;19.60;68.30;98276.39;125698;1096;103009;-74
2021/06/22 03:15:36;;;;;;;16.17;7.37;;;;;;;19.60;68.60;98275.53;125678;1095;103091;-74
2021/06/22 03:18:04;;;;;;;19.57;8.73;;;;;;;19.62;68.64;98278.88;125649;1097;103095;-74
2021/06/22 03:20:33;;;;;;;19.73;8.70;;;;;;;19.63;68.50;98280.55;125663;1095;103012;-74
2021/06/22 03:23:01;;;;;;;17.93;8.07;;;;;;;19.65;68.52;98278.50;125707;1097;103074;-73
2021/06/22 03:25:29;;;;;;;18.93;8.37;;;;;;;19.68;68.29;98283.52;125646;1094;103066;-75
2021/06/22 03:27:58;;;;;;;17.90;7.47;;;;;;;19.69;68.22;98285.20;125551;1095;103008;-76
2021/06/22 03:30:27;;;;;;;15.23;7.77;;;;;;;19.69;68.53;98287.89;125419;1096;102911;-77
2021/06/22 03:32:55;;;;;;;21.00;9.33;;;;;;;19.71;68.59;98298.52;125576;1095;103055;-75
2021/06/22 03:35:28;;;;;;;18.30;8.73;;;;;;;19.71;68.48;98296.63;125599;1095;102995;-74
2021/06/22 03:37:57;;;;;;;17.87;8.03;;;;;;;19.76;68.82;98296.09;126050;1094;103048;-77
2021/06/22 03:40:26;;;;;;;19.87;7.97;;;;;;;19.82;68.55;98302.57;125690;1097;103064;-77
2021/06/22 03:42:55;;;;;;;22.63;7.97;;;;;;;19.87;68.35;98310.94;125505;1096;103563;-77
2021/06/22 03:45:24;;;;;;;17.07;7.67;;;;;;;19.87;68.53;98308.23;125624;1097;102930;-77
2021/06/22 03:47:54;;;;;;;15.77;8.07;;;;;;;19.87;68.46;98308.23;125670;1097;102936;-77
2021/06/22 03:50:23;;;;;;;16.27;8.07;;;;;;;19.88;68.47;98302.67;125717;1097;102887;-77
2021/06/22 03:52:53;;;;;;;18.20;7.67;;;;;;;19.89;68.36;98307.04;125652;1097;102941;-79
2021/06/22 03:55:28;;;;;;;21.27;8.20;;;;;;;19.92;68.70;98316.63;125613;1097;103027;-78
2021/06/22 03:58:01;;;;;;;17.47;7.57;;;;;;;19.95;68.48;98308.16;125685;1095;102913;-77
2021/06/22 04:00:31;;;;;;;17.50;7.53;;;;;;;19.98;68.67;98317.72;125626;1095;103012;-76
2021/06/22 04:03:01;;;;;;;18.10;7.83;;;;;;;19.99;68.41;98309.42;125621;1096;103403;-80
2021/06/22 04:05:31;;;;;;;16.17;8.00;;;;;;;20.03;68.70;98320.69;125700;1095;103033;-82
2021/06/22 04:08:04;;;;;;;20.50;7.97;;;;;;;20.07;68.58;98312.00;125920;1096;103636;-79
2021/06/22 04:10:33;;;;;;;23.75;8.85;;;;;;;20.14;68.53;98308.55;125947;1095;103003;-75
2021/06/22 04:13:01;;;;;;;18.93;7.63;;;;;;;20.19;68.63;98316.91;125532;1096;103159;-75
2021/06/22 04:15:30;;;;;;;16.50;8.43;;;;;;;20.25;68.83;98308.04;126228;1095;101862;-76
2021/06/22 04:18:04;;;;;;;20.97;8.20;;;;;;;20.32;68.80;98318.89;125597;1095;103006;-74
2021/06/22 04:20:35;;;;;;;19.10;8.67;;;;;;;20.38;68.71;98318.94;125590;1095;103033;-75
2021/06/22 04:23:06;;;;;;;21.17;8.43;;;;;;;20.46;68.71;98325.25;125711;1095;102984;-75
2021/06/22 04:25:35;;;;;;;22.40;9.10;;;;;;;20.53;68.50;98321.59;125736;1095;103090;-76
2021/06/22 04:28:04;;;;;;;19.13;9.03;;;;;;;20.59;68.88;98325.38;125713;1096;103023;-75
2021/06/22 04:30:35;;;;;;;20.90;9.43;;;;;;;20.67;68.71;98327.94;125642;1097;103031;-76
2021/06/22 04:33:05;;;;;;;21.73;8.90;;;;;;;20.73;68.59;98317.39;125635;1097;103103;-74
2021/06/22 04:35:35;;;;;;;21.00;8.80;;;;;;;20.79;68.66;98322.87;125691;1097;103009;-74
2021/06/22 04:38:06;;;;;;;18.03;8.67;;;;;;;20.86;68.69;98322.08;125609;1096;103021;-73
2021/06/22 04:40:37;;;;;;;21.00;8.60;;;;;;;20.91;68.67;98333.97;125651;1094;102962;-73
2021/06/22 04:43:07;;;;;;;18.00;7.67;;;;;;;20.97;68.71;98335.89;125603;1094;103017;-73
2021/06/22 04:45:36;;;;;;;21.47;8.60;;;;;;;21.05;68.60;98340.30;125869;1094;103066;-73
2021/06/22 04:48:05;;;;;;;20.07;8.97;;;;;;;21.14;68.65;98334.74;126080;1096;103000;-75
2021/06/22 04:50:34;;;;;;;21.27;8.40;;;;;;;21.21;68.77;98327.52;125655;1096;103097;-74
2021/06/22 04:53:03;;;;;;;21.10;8.80;;;;;;;21.30;68.45;98336.30;125672;1095;102916;-74
2021/06/22 04:55:31;;;;;;;14.17;7.80;;;;;;;21.36;68.72;98333.64;125727;1095;103060;-74
2021/06/22 04:58:01;;;;;;;20.10;8.40;;;;;;;21.48;68.71;98335.77;125712;1096;103151;-74
2021/06/22 05:00:30;;;;;;;18.90;8.03;;;;;;;21.54;68.42;98338.52;125732;1096;102913;-72
2021/06/22 05:03:00;;;;;;;19.43;7.90;;;;;;;21.64;68.58;98331.91;125582;1096;103010;-73
2021/06/22 05:05:29;;;;;;;17.00;7.20;;;;;;;21.73;68.56;98330.70;125722;1097;102991;-75
2021/06/22 05:07:58;;;;;;;15.93;7.13;;;;;;;21.81;68.22;98330.54;125684;1096;102984;-73
2021/06/22 05:10:27;;;;;;;16.20;7.23;;;;;;;21.91;68.41;98330.15;125652;1096;103004;-74
2021/06/22 05:12:55;;;;;;;15.87;6.87;;;;;;;22.00;67.94;98331.64;125681;1096;102919;-73
2021/06/22 05:15:24;;;;;;;21.63;7.50;;;;;;;22.07;68.48;98334.36;125659;1096;103004;-74
2021/06/22 05:17:53;;;;;;;19.37;7.67;;;;;;;22.19;68.59;98342.74;125699;1096;102914;-74
2021/06/22 05:20:21;;;;;;;22.77;7.83;;;;;;;22.28;68.29;98344.20;125650;1095;102937;-75
2021/06/22 05:22:50;;;;;;;18.40;7.50;;;;;;;22.37;68.21;98346.72;125632;1096;102919;-75
2021/06/22 05:25:18;;;;;;;14.93;6.63;;;;;;;22.51;68.36;98343.03;125684;1096;103019;-76
2021/06/22 05:27:47;;;;;;;17.63;6.77;;;;;;;22.65;67.98;98345.73;125656;1096;102952;-73
2021/06/22 05:30:17;;;;;;;15.20;6.87;;;;;;;22.78;67.92;98348.45;125693;1096;103090;-73
2021/06/22 05:32:45;;;;;;;17.47;6.10;;;;;;;22.90;68.34;98357.63;125670;1096;103034;-73
2021/06/22 05:35:13;;;;;;;13.47;5.80;;;;;;;23.01;67.85;98363.47;125634;1096;103086;-74
2021/06/22 05:37:42;;;;;;;16.23;6.50;;;;;;;23.16;67.95;98371.38;125581;1096;102978;-74
2021/06/22 05:40:11;;;;;;;15.73;6.00;;;;;;;23.45;67.55;98367.38;125679;1097;103020;-74
2021/06/22 05:42:40;;;;;;;17.77;6.63;;;;;;;24.04;67.03;98364.69;125709;1095;102921;-75
2021/06/22 05:45:09;;;;;;;9.07;5.17;;;;;;;24.75;66.61;98359.26;125695;1096;104760;-74
2021/06/22 05:47:37;;;;;;;11.70;5.67;;;;;;;25.35;66.97;98354.31;125645;1095;103094;-73
2021/06/22 05:50:08;;;;;;;10.53;5.43;;;;;;;25.65;67.08;98362.61;125693;1096;102975;-74
2021/06/22 05:52:36;;;;;;;12.77;4.93;;;;;;;25.76;67.01;98362.88;125635;1097;103007;-75
2021/06/22 05:55:16;;;;;;;10.90;4.95;;;;;;;25.81;66.79;98372.05;125678;1095;103016;-75
2021/06/22 05:57:50;;;;;;;16.27;5.77;;;;;;;25.80;66.59;98373.11;125645;1096;102999;-75
2021/06/22 06:00:21;;;;;;;11.67;4.70;;;;;;;25.83;66.49;98374.53;125667;1095;102936;-75
2021/06/22 06:02:51;;;;;;;12.40;4.93;;;;;;;25.84;66.39;98368.03;125744;1096;103163;-74
2021/06/22 06:05:24;;;;;;;11.05;5.25;;;;;;;25.85;66.46;98373.27;125693;1096;103012;-73
2021/06/22 06:07:54;;;;;;;13.20;4.80;;;;;;;25.91;65.41;98370.66;125680;1096;102939;-78
2021/06/22 06:10:23;;;;;;;13.13;5.50;;;;;;;25.91;65.76;98374.23;125673;1095;103078;-76
2021/06/22 06:12:52;;;;;;;12.60;5.37;;;;;;;26.04;65.72;98375.95;125659;1096;103103;-75
2021/06/22 06:15:20;;;;;;;12.23;5.00;;;;;;;26.14;65.34;98370.82;125645;1096;103010;-75
2021/06/22 06:17:50;;;;;;;7.97;4.43;;;;;;;26.28;65.07;98373.38;125623;1096;103063;-77
2021/06/22 06:20:18;;;;;;;16.27;4.90;;;;;;;26.33;64.41;98368.03;125666;1096;103163;-76
2021/06/22 06:22:48;;;;;;;14.95;5.25;;;;;;;26.33;64.71;98365.30;125658;1094;103133;-77
2021/06/22 06:25:17;;;;;;;12.67;5.00;;;;;;;26.36;63.95;98362.12;125645;1096;102934;-75
2021/06/22 06:28:00;;;;;;;11.63;4.73;;;;;;;26.39;63.70;98361.66;125644;1096;102949;-76
2021/06/22 06:30:30;;;;;;;8.28;4.48;;;;;;;26.40;63.15;98363.32;125653;1096;103087;-77
2021/06/22 06:32:59;;;;;;;9.60;4.80;;;;;;;26.44;63.38;98361.80;125648;1095;103023;-76
2021/06/22 06:35:28;;;;;;;12.60;4.63;;;;;;;26.57;62.76;98357.21;125631;1095;103081;-76
2021/06/22 06:37:57;;;;;;;8.10;5.00;;;;;;;26.69;62.85;98359.95;125585;1096;103011;-76
2021/06/22 06:40:25;;;;;;;11.80;4.15;;;;;;;26.86;62.73;98358.25;125652;1095;103010;-77
2021/06/22 06:42:54;;;;;;;11.90;4.57;;;;;;;27.02;62.55;98359.45;125668;1095;102950;-78
2021/06/22 06:45:24;;;;;;;12.47;4.93;;;;;;;27.13;61.63;98367.84;125619;1094;103472;-76
2021/06/22 06:47:53;;;;;;;9.63;4.50;;;;;;;27.19;61.22;98358.72;125538;1095;103032;-76
2021/06/22 06:50:22;;;;;;;9.47;4.43;;;;;;;27.23;61.02;98367.28;125557;1095;103416;-77
2021/06/22 06:52:50;;;;;;;9.57;4.80;;;;;;;27.35;61.61;98357.16;125607;1096;102998;-78
2021/06/22 06:55:25;;;;;;;9.40;4.33;;;;;;;27.53;60.50;98364.41;125579;1095;103443;-77
2021/06/22 06:58:01;;;;;;;10.00;4.80;;;;;;;27.56;60.81;98355.73;125660;1095;102885;-74
2021/06/22 07:00:32;;;;;;;12.97;4.97;;;;;;;27.63;60.22;98364.64;125767;1096;102922;-81
2021/06/22 07:03:01;;;;;;;14.60;5.10;;;;;;;27.78;59.73;98368.77;125540;1094;103060;-75
2021/06/22 07:05:30;;;;;;;16.47;5.07;;;;;;;27.98;59.71;98362.89;125531;1096;103581;-77
2021/06/22 07:08:00;;;;;;;11.10;5.07;;;;;;;28.80;59.49;98358.12;125792;1096;102922;-75
2021/06/22 07:10:30;;;;;;;10.30;4.90;;;;;;;30.00;58.23;98349.70;125631;1096;103006;-77
2021/06/22 07:13:02;;;;;;;6.27;3.90;;;;;;;31.05;58.31;98355.89;125674;1096;103075;-77
2021/06/22 07:15:31;;;;;;;9.40;4.23;;;;;;;31.72;57.39;98361.82;125386;1096;103767;-74
2021/06/22 07:18:00;;;;;;;9.17;3.90;;;;;;;32.25;56.95;98362.81;125623;1096;102964;-78
2021/06/22 07:20:30;;;;;;;13.00;4.13;;;;;;;32.75;57.05;98360.44;125416;1095;103001;-76
2021/06/22 07:22:58;;;;;;;11.07;4.47;;;;;;;33.18;56.41;98358.23;125639;1096;103065;-77
2021/06/22 07:25:27;;;;;;;8.87;3.63;;;;;;;33.70;56.12;98353.42;125649;1096;103013;-76
2021/06/22 07:27:57;;;;;;;16.10;4.57;;;;;;;34.01;55.22;98355.25;125612;1096;102952;-76
2021/06/22 07:30:27;;;;;;;8.47;3.50;;;;;;;34.44;55.63;98358.30;125567;1096;103003;-77
2021/06/22 07:32:57;;;;;;;10.37;3.93;;;;;;;34.95;55.38;98361.77;125613;1096;102918;-78
2021/06/22 07:35:29;;;;;;;10.37;3.37;;;;;;;35.48;55.33;98362.97;125628;1096;102948;-76
2021/06/22 07:37:57;;;;;;;6.17;3.13;;;;;;;35.66;51.71;98361.38;125626;1097;103105;-78
2021/06/22 07:40:26;;;;;;;8.53;3.73;;;;;;;35.56;52.44;98362.33;125476;1096;102913;-78
2021/06/22 07:42:56;;;;;;;10.60;4.40;;;;;;;35.82;52.75;98364.77;125575;1096;102953;-76
2021/06/22 07:45:25;;;;;;;7.50;3.53;;;;;;;36.21;51.97;98366.49;125564;1095;102939;-76
2021/06/22 07:47:55;;;;;;;8.30;3.70;;;;;;;36.63;52.09;98369.52;125571;1095;103003;-76
2021/06/22 07:50:29;;;;;;;12.43;4.03;;;;;;;36.78;50.42;98373.14;125471;1096;102916;-76
2021/06/22 07:53:01;;;;;;;9.33;3.67;;;;;;;36.67;49.94;98375.26;125597;1095;103314;-77
2021/06/22 07:55:36;;;;;;;10.57;3.60;;;;;;;36.91;49.02;98372.37;125665;1095;103039;-77
2021/06/22 07:58:05;;;;;;;9.73;3.90;;;;;;;37.11;49.23;98377.89;125649;1096;103099;-78
2021/06/22 08:00:45;;;;;;;11.10;3.70;;;;;;;37.39;47.34;98379.56;125696;1095;103010;-76
2021/06/22 08:03:20;;;;;;;9.87;3.33;;;;;;;37.46;47.47;98378.38;125653;1095;103841;-76
2021/06/22 08:05:51;;;;;;;9.87;3.57;;;;;;;37.67;47.43;98382.41;125645;1096;103051;-76
2021/06/22 08:08:22;;;;;;;;;;;;;;;38.02;47.32;98383.94;125661;1096;102917;-75
2021/06/22 08:10:56;;;;;;;10.73;3.97;;;;;;;38.13;46.70;98383.40;125629;1094;102929;-75
2021/06/22 08:13:27;;;;;;;10.73;3.53;;;;;;;37.94;45.37;98391.02;125708;1096;103105;-76
2021/06/22 08:16:02;;;;;;;11.07;4.13;;;;;;;37.76;45.66;98398.30;125660;1096;103037;-75
2021/06/22 08:18:32;;;;;;;12.10;3.57;;;;;;;37.79;45.40;98395.75;125711;1096;103016;-76
2021/06/22 08:21:06;;;;;;;6.83;3.40;;;;;;;38.33;44.94;98399.91;125660;1095;103090;-76
2021/06/22 08:23:35;;;;;;;5.80;3.37;;;;;;;37.97;42.63;98402.34;125657;1096;103008;-76
2021/06/22 08:26:06;;;;;;;8.10;3.30;;;;;;;37.49;40.91;98403.56;125716;1096;103006;-76
2021/06/22 08:28:37;;;;;;;13.08;3.85;;;;;;;37.11;41.57;98394.52;125670;1096;102914;-75
2021/06/22 08:31:07;;;;;;;8.80;3.33;;;;;;;36.55;39.72;98400.66;125649;1096;102916;-75
2021/06/22 08:33:36;;;;;;;11.23;4.00;;;;;;;36.11;40.41;98410.91;125665;1096;103138;-73
2021/06/22 08:36:05;;;;;;;17.50;4.20;;;;;;;36.11;40.46;98410.91;125701;1096;102916;-76
2021/06/22 08:38:36;;;;;;;12.05;3.98;;;;;;;36.05;39.66;98412.94;125675;1096;103044;-76
2021/06/22 08:41:07;;;;;;;9.90;3.83;;;;;;;36.19;40.63;98413.02;125664;1094;103096;-74
2021/06/22 08:43:38;;;;;;;8.33;3.87;;;;;;;36.53;40.68;98416.74;125647;1094;102946;-75
2021/06/22 08:46:10;;;;;;;8.80;3.57;;;;;;;36.99;40.03;98409.67;125698;1095;103187;-75
2021/06/22 08:48:42;;;;;;;9.53;3.53;;;;;;;37.07;39.34;98410.95;125669;1095;102916;-74
2021/06/22 08:51:10;;;;;;;5.90;3.50;;;;;;;36.58;37.45;98421.38;125734;1096;103358;-74
2021/06/22 08:53:39;;;;;;;12.40;3.57;;;;;;;35.85;37.34;98425.05;125538;1096;102980;-75
2021/06/22 08:56:07;;;;;;;7.83;3.23;;;;;;;35.28;37.13;98425.60;125629;1095;102916;-76
2021/06/22 08:58:36;;;;;;;13.10;4.00;;;;;;;35.24;38.08;98418.20;125651;1096;103215;-75
2021/06/22 09:01:04;;;;;;;13.60;4.33;;;;;;;35.45;38.21;98427.95;125652;1096;102911;-73
2021/06/22 09:03:38;;;;;;;8.97;3.83;;;;;;;35.78;38.48;98426.53;125633;1096;103080;-73
2021/06/22 09:06:06;;;;;;;11.33;3.30;;;;;;;36.12;37.75;98420.05;125517;1096;103125;-74
2021/06/22 09:08:35;;;;;;;10.73;4.20;;;;;;;36.13;38.28;98422.51;125656;1095;103038;-74
2021/06/22 09:11:06;;;;;;;7.43;3.80;;;;;;;36.40;37.67;98425.76;125693;1095;103124;-74
2021/06/22 09:13:41;;;;;;;8.30;3.77;;;;;;;36.13;35.79;98416.16;125691;1096;103010;-74
2021/06/22 09:16:14;;;;;;;8.97;3.33;;;;;;;35.26;36.09;98424.27;125690;1096;102954;-74
2021/06/22 09:18:46;;;;;;;8.57;3.50;;;;;;;34.70;35.86;98427.17;125699;1096;103048;-73
2021/06/22 09:21:23;;;;;;;8.50;3.50;;;;;;;34.54;36.61;98422.85;125628;1097;103010;-72
2021/06/22 09:23:57;;;;;;;5.43;3.70;;;;;;;34.35;36.33;98425.42;125714;1096;103020;-73
2021/06/22 09:26:32;;;;;;;10.53;4.20;;;;;;;34.23;36.24;98423.00;125667;1095;102973;-74
2021/06/22 09:29:14;;;;;;;9.57;3.70;;;;;;;34.10;36.54;98424.45;125693;1095;103003;-72
2021/06/22 09:31:56;;;;;;;9.03;3.90;;;;;;;34.19;36.65;98422.76;125667;1095;103348;-73
2021/06/22 09:34:29;;;;;;;9.13;3.83;;;;;;;34.05;36.28;98428.04;125638;1096;103115;-72
2021/06/22 09:37:04;;;;;;;11.17;4.47;;;;;;;33.80;36.38;98421.49;125770;1094;102990;-73
2021/06/22 09:39:33;;;;;;;10.73;5.23;;;;;;;33.97;36.57;98425.89;125609;1096;102942;-74
2021/06/22 09:42:02;;;;;;;12.05;5.05;;;;;;;33.96;37.20;98422.29;125915;1095;103531;-73
2021/06/22 09:44:30;;;;;;;13.90;5.67;;;;;;;33.96;36.97;98419.53;125734;1097;102987;-73
2021/06/22 09:47:02;;;;;;;10.30;4.80;;;;;;;33.95;37.47;98415.13;125710;1094;103181;-72
2021/06/22 09:49:39;;;;;;;6.85;3.98;;;;;;;33.89;35.84;98418.97;125657;1096;102911;-72
2021/06/22 09:52:15;;;;;;;8.63;4.20;;;;;;;33.39;36.07;98427.95;125643;1094;103012;-77
2021/06/22 09:54:50;;;;;;;8.80;4.00;;;;;;;33.32;36.88;98427.38;125654;1096;102914;-75
2021/06/22 09:57:20;;;;;;;9.93;4.98;;;;;;;33.57;36.92;98424.88;125648;1096;103067;-70
2021/06/22 10:00:08;;;;;;;11.27;4.83;;;;;;;33.68;36.88;98413.54;125613;1095;102945;-72
2021/06/22 10:02:52;;;;;;;8.27;4.30;;;;;;;33.74;37.27;98411.58;125660;1094;102998;-70
2021/06/22 10:05:23;;;;;;;12.37;4.77;;;;;;;33.55;37.21;98423.23;126148;1096;102916;-69
2021/06/22 10:08:03;;;;;;;11.47;4.43;;;;;;;33.37;36.20;98418.26;125704;1097;102945;-73
2021/06/22 10:10:41;;;;;;;8.00;4.47;;;;;;;33.09;36.99;98413.05;125672;1095;102916;-70
2021/06/22 10:13:30;;;;;;;15.50;5.20;;;;;;;32.96;36.64;98425.45;125657;1096;103060;-72
2021/06/22 10:16:23;;;;;;;13.77;4.27;;;;;;;32.85;36.85;98417.47;125688;1095;102997;-72
2021/06/22 10:18:53;;;;;;;10.77;4.60;;;;;;;32.57;37.10;98414.11;125690;1096;103016;-73
2021/06/22 10:21:21;;;;;;;10.10;4.53;;;;;;;32.54;37.46;98411.90;125708;1096;102930;-74
2021/06/22 10:23:51;;;;;;;10.00;4.30;;;;;;;32.60;37.34;98410.81;125926;1095;101721;-72
2021/06/22 10:26:20;;;;;;;6.63;3.90;;;;;;;32.65;37.12;98413.55;126300;1096;103067;-73
2021/06/22 10:28:48;;;;;;;8.37;4.50;;;;;;;32.51;36.52;98411.34;125909;1094;102916;-72
2021/06/22 10:31:20;;;;;;;11.53;4.23;;;;;;;32.15;36.68;98408.47;125660;1094;103071;-72
2021/06/22 10:33:49;;;;;;;;;;;;;;;31.99;37.07;98409.50;125690;1095;103010;-71
2021/06/22 10:36:30;;;;;;;10.33;4.40;;;;;;;32.04;37.42;98404.83;125809;1096;102953;-73
2021/06/22 10:39:30;;;;;;;7.00;3.90;;;;;;;32.21;37.27;98395.55;125624;1096;103090;-72
2021/06/22 10:42:08;;;;;;;11.20;4.60;;;;;;;32.35;37.58;98398.64;125682;1095;103037;-73
2021/06/22 10:44:48;;;;;;;10.50;4.25;;;;;;;32.49;37.70;98391.52;125685;1095;103010;-72
2021/06/22 10:47:18;;;;;;;7.33;4.07;;;;;;;32.62;37.44;98392.91;125646;1094;102976;-75
2021/06/22 10:50:07;;;;;;;8.10;4.30;;;;;;;32.45;37.42;98393.16;125691;1095;103192;-72
2021/06/22 10:52:46;;;;;;;9.55;4.40;;;;;;;32.38;37.16;98398.09;125659;1096;103101;-71
2021/06/22 10:55:28;;;;;;;9.50;4.93;;;;;;;32.34;37.37;98392.33;125661;1096;102971;-72
2021/06/22 10:57:56;;;;;;;10.45;4.60;;;;;;;32.40;37.71;98392.34;125524;1094;103024;-73
2021/06/22 11:00:29;;;;;;;8.37;3.87;;;;;;;32.47;36.88;98398.38;125717;1095;103036;-72
2021/06/22 11:03:04;;;;;;;8.33;4.73;;;;;;;32.35;37.07;98396.73;125651;1095;102936;-74
2021/06/22 11:05:36;;;;;;;8.17;4.30;;;;;;;32.26;37.04;98387.31;125635;1095;102997;-73
2021/06/22 11:08:14;;;;;;;10.87;4.50;;;;;;;32.34;37.77;98392.33;125679;1097;103023;-72
2021/06/22 11:11:08;;;;;;;9.23;4.70;;;;;;;32.49;37.67;98386.02;125635;1095;102916;-72
2021/06/22 11:13:59;;;;;;;8.37;4.67;;;;;;;32.60;37.66;98389.60;125752;1095;103129;-73
2021/06/22 11:16:34;;;;;;;10.60;4.53;;;;;;;32.69;37.67;98384.38;125677;1097;103192;-72
2021/06/22 11:19:10;;;;;;;8.77;4.23;;;;;;;32.80;37.08;98379.72;125630;1096;103291;-73
2021/06/22 11:21:51;;;;;;;8.53;4.70;;;;;;;32.69;37.07;98383.56;125690;1095;103071;-73
2021/06/22 11:24:27;;;;;;;10.23;4.80;;;;;;;32.71;37.35;98373.91;125662;1096;102916;-73
2021/06/22 11:27:03;;;;;;;11.17;4.60;;;;;;;32.73;36.78;98374.47;125746;1094;103097;-72